sensor_id;sensor_type;location;lat;lon;timestamp;P1;durP1;ratioP1;P2;durP2;ratioP2
27408;SDS011;20413;50.782;7.152;2022-11-21T00:00:17;18.58;;;3.00;;
27408;SDS011;20413;50.782;7.152;2022-11-21T00:02:44;16.40;;;3.40;;
27408;SDS011;20413;50.782;7.152;2022-11-21T00:05:10;17.98;;;3.30;;
27408;SDS011;20413;50.782;7.152;2022-11-21T00:07:36;18.13;;;3.13;;
27408;SDS011;20413;50.782;7.152;2022-11-21T00:10:02;15.90;;;2.72;;
27408;SDS011;20413;50.782;7.152;2022-11-21T00:12:28;17.25;;;3.38;;
27408;SDS011;20413;50.782;7.152;2022-11-21T00:14:54;15.05;;;3.35;;
27408;SDS011;20413;50.782;7.152;2022-11-21T00:17:20;25.85;;;3.85;;
27408;SDS011;20413;50.782;7.152;2022-11-21T00:19:46;22.02;;;4.60;;
27408;SDS011;20413;50.782;7.152;2022-11-21T00:22:12;26.85;;;3.55;;
27408;SDS011;20413;50.782;7.152;2022-11-21T00:24:38;21.60;;;3.58;;
27408;SDS011;20413;50.782;7.152;2022-11-21T00:27:04;14.68;;;2.42;;
27408;SDS011;20413;50.782;7.152;2022-11-21T00:29:30;15.13;;;3.22;;
27408;SDS011;20413;50.782;7.152;2022-11-21T00:31:56;17.42;;;3.05;;
27408;SDS011;20413;50.782;7.152;2022-11-21T00:34:22;17.38;;;3.08;;
27408;SDS011;20413;50.782;7.152;2022-11-21T00:36:48;27.80;;;3.28;;
27408;SDS011;20413;50.782;7.152;2022-11-21T00:39:14;15.77;;;2.65;;
27408;SDS011;20413;50.782;7.152;2022-11-21T00:41:40;18.40;;;3.63;;
27408;SDS011;20413;50.782;7.152;2022-11-21T00:44:06;11.40;;;2.35;;
27408;SDS011;20413;50.782;7.152;2022-11-21T00:46:32;19.70;;;3.35;;
27408;SDS011;20413;50.782;7.152;2022-11-21T00:48:58;13.05;;;2.40;;
27408;SDS011;20413;50.782;7.152;2022-11-21T00:51:24;13.07;;;3.17;;
27408;SDS011;20413;50.782;7.152;2022-11-21T00:53:50;21.45;;;2.63;;
27408;SDS011;20413;50.782;7.152;2022-11-21T00:56:16;12.18;;;2.85;;
27408;SDS011;20413;50.782;7.152;2022-11-21T00:58:42;13.52;;;2.58;;
27408;SDS011;20413;50.782;7.152;2022-11-21T01:01:09;19.80;;;3.10;;
27408;SDS011;20413;50.782;7.152;2022-11-21T01:03:35;17.73;;;3.05;;
27408;SDS011;20413;50.782;7.152;2022-11-21T01:06:02;22.85;;;2.83;;
27408;SDS011;20413;50.782;7.152;2022-11-21T01:08:29;16.42;;;2.85;;
27408;SDS011;20413;50.782;7.152;2022-11-21T01:10:55;13.15;;;2.20;;
27408;SDS011;20413;50.782;7.152;2022-11-21T01:13:21;10.10;;;2.40;;
27408;SDS011;20413;50.782;7.152;2022-11-21T01:15:47;23.05;;;3.13;;
27408;SDS011;20413;50.782;7.152;2022-11-21T01:18:13;17.77;;;2.78;;
27408;SDS011;20413;50.782;7.152;2022-11-21T01:20:39;17.58;;;2.63;;
27408;SDS011;20413;50.782;7.152;2022-11-21T01:23:08;14.85;;;2.47;;
27408;SDS011;20413;50.782;7.152;2022-11-21T01:25:34;21.40;;;3.03;;
27408;SDS011;20413;50.782;7.152;2022-11-21T01:28:00;23.98;;;3.20;;
27408;SDS011;20413;50.782;7.152;2022-11-21T01:30:26;14.50;;;2.53;;
27408;SDS011;20413;50.782;7.152;2022-11-21T01:32:53;13.55;;;2.70;;
27408;SDS011;20413;50.782;7.152;2022-11-21T01:35:19;11.10;;;2.53;;
27408;SDS011;20413;50.782;7.152;2022-11-21T01:37:48;15.35;;;3.35;;
27408;SDS011;20413;50.782;7.152;2022-11-21T01:40:14;12.43;;;2.92;;
27408;SDS011;20413;50.782;7.152;2022-11-21T01:42:48;14.18;;;3.05;;
27408;SDS011;20413;50.782;7.152;2022-11-21T01:47:59;12.18;;;2.67;;
27408;SDS011;20413;50.782;7.152;2022-11-21T01:50:25;18.90;;;3.03;;
27408;SDS011;20413;50.782;7.152;2022-11-21T01:52:51;12.07;;;2.58;;
27408;SDS011;20413;50.782;7.152;2022-11-21T01:55:17;13.38;;;2.47;;
27408;SDS011;20413;50.782;7.152;2022-11-21T01:57:43;16.67;;;3.53;;
27408;SDS011;20413;50.782;7.152;2022-11-21T02:02:36;20.38;;;2.65;;
27408;SDS011;20413;50.782;7.152;2022-11-21T02:05:05;17.73;;;2.92;;
27408;SDS011;20413;50.782;7.152;2022-11-21T02:07:32;8.27;;;2.42;;
27408;SDS011;20413;50.782;7.152;2022-11-21T02:10:00;12.35;;;2.90;;
27408;SDS011;20413;50.782;7.152;2022-11-21T02:12:28;9.37;;;2.37;;
27408;SDS011;20413;50.782;7.152;2022-11-21T02:14:56;14.75;;;2.78;;
27408;SDS011;20413;50.782;7.152;2022-11-21T02:17:24;11.90;;;2.50;;
27408;SDS011;20413;50.782;7.152;2022-11-21T02:19:56;14.73;;;3.30;;
27408;SDS011;20413;50.782;7.152;2022-11-21T02:22:35;10.35;;;2.90;;
27408;SDS011;20413;50.782;7.152;2022-11-21T02:25:05;10.40;;;2.70;;
27408;SDS011;20413;50.782;7.152;2022-11-21T02:27:32;11.05;;;2.30;;
27408;SDS011;20413;50.782;7.152;2022-11-21T02:29:58;14.75;;;3.22;;
27408;SDS011;20413;50.782;7.152;2022-11-21T02:32:30;12.57;;;2.67;;
27408;SDS011;20413;50.782;7.152;2022-11-21T02:34:56;14.70;;;2.33;;
27408;SDS011;20413;50.782;7.152;2022-11-21T02:37:22;12.45;;;2.50;;
27408;SDS011;20413;50.782;7.152;2022-11-21T02:39:49;11.57;;;2.08;;
27408;SDS011;20413;50.782;7.152;2022-11-21T02:42:27;8.27;;;1.95;;
27408;SDS011;20413;50.782;7.152;2022-11-21T02:47:27;11.52;;;2.25;;
27408;SDS011;20413;50.782;7.152;2022-11-21T02:52:25;11.55;;;2.55;;
27408;SDS011;20413;50.782;7.152;2022-11-21T02:54:51;11.98;;;2.20;;
27408;SDS011;20413;50.782;7.152;2022-11-21T02:57:17;16.38;;;2.90;;
27408;SDS011;20413;50.782;7.152;2022-11-21T02:59:44;12.85;;;2.38;;
27408;SDS011;20413;50.782;7.152;2022-11-21T03:02:10;9.98;;;2.42;;
27408;SDS011;20413;50.782;7.152;2022-11-21T03:04:36;12.57;;;2.17;;
27408;SDS011;20413;50.782;7.152;2022-11-21T03:07:02;9.50;;;2.25;;
27408;SDS011;20413;50.782;7.152;2022-11-21T03:09:28;12.27;;;2.35;;
27408;SDS011;20413;50.782;7.152;2022-11-21T03:11:54;10.00;;;2.50;;
27408;SDS011;20413;50.782;7.152;2022-11-21T03:14:20;13.50;;;2.10;;
27408;SDS011;20413;50.782;7.152;2022-11-21T03:16:46;10.35;;;2.30;;
27408;SDS011;20413;50.782;7.152;2022-11-21T03:19:12;12.85;;;2.60;;
27408;SDS011;20413;50.782;7.152;2022-11-21T03:21:38;10.82;;;2.30;;
27408;SDS011;20413;50.782;7.152;2022-11-21T03:24:04;8.85;;;1.80;;
27408;SDS011;20413;50.782;7.152;2022-11-21T03:26:30;8.77;;;2.17;;
27408;SDS011;20413;50.782;7.152;2022-11-21T03:28:56;10.48;;;2.60;;
27408;SDS011;20413;50.782;7.152;2022-11-21T03:31:22;10.00;;;2.30;;
27408;SDS011;20413;50.782;7.152;2022-11-21T03:33:48;11.95;;;2.28;;
27408;SDS011;20413;50.782;7.152;2022-11-21T03:36:14;10.25;;;2.08;;
27408;SDS011;20413;50.782;7.152;2022-11-21T03:38:40;11.05;;;2.50;;
27408;SDS011;20413;50.782;7.152;2022-11-21T03:41:06;10.20;;;2.17;;
27408;SDS011;20413;50.782;7.152;2022-11-21T03:43:52;12.50;;;2.13;;
27408;SDS011;20413;50.782;7.152;2022-11-21T03:46:18;6.65;;;1.92;;
27408;SDS011;20413;50.782;7.152;2022-11-21T03:48:44;11.40;;;2.25;;
27408;SDS011;20413;50.782;7.152;2022-11-21T03:51:10;12.80;;;2.58;;
27408;SDS011;20413;50.782;7.152;2022-11-21T03:53:36;12.95;;;2.40;;
27408;SDS011;20413;50.782;7.152;2022-11-21T03:56:02;8.23;;;2.05;;
27408;SDS011;20413;50.782;7.152;2022-11-21T03:58:28;9.88;;;2.50;;
27408;SDS011;20413;50.782;7.152;2022-11-21T04:00:54;13.40;;;2.38;;
27408;SDS011;20413;50.782;7.152;2022-11-21T04:03:20;9.98;;;2.20;;
27408;SDS011;20413;50.782;7.152;2022-11-21T04:05:46;8.52;;;2.10;;
27408;SDS011;20413;50.782;7.152;2022-11-21T04:08:12;12.90;;;2.10;;
27408;SDS011;20413;50.782;7.152;2022-11-21T04:10:38;12.02;;;2.22;;
27408;SDS011;20413;50.782;7.152;2022-11-21T04:13:04;6.63;;;1.88;;
27408;SDS011;20413;50.782;7.152;2022-11-21T04:15:30;8.40;;;1.92;;
27408;SDS011;20413;50.782;7.152;2022-11-21T04:17:56;9.63;;;2.63;;
27408;SDS011;20413;50.782;7.152;2022-11-21T04:20:22;6.25;;;1.70;;
27408;SDS011;20413;50.782;7.152;2022-11-21T04:22:48;5.85;;;1.58;;
27408;SDS011;20413;50.782;7.152;2022-11-21T04:25:14;5.80;;;2.17;;
27408;SDS011;20413;50.782;7.152;2022-11-21T04:27:40;5.45;;;1.73;;
27408;SDS011;20413;50.782;7.152;2022-11-21T04:30:06;9.55;;;1.90;;
27408;SDS011;20413;50.782;7.152;2022-11-21T04:32:32;9.90;;;2.00;;
27408;SDS011;20413;50.782;7.152;2022-11-21T04:34:58;10.93;;;2.25;;
27408;SDS011;20413;50.782;7.152;2022-11-21T04:37:24;8.10;;;2.10;;
27408;SDS011;20413;50.782;7.152;2022-11-21T04:39:50;8.18;;;2.28;;
27408;SDS011;20413;50.782;7.152;2022-11-21T04:42:16;7.05;;;2.20;;
27408;SDS011;20413;50.782;7.152;2022-11-21T04:44:42;12.23;;;2.60;;
27408;SDS011;20413;50.782;7.152;2022-11-21T04:47:08;9.40;;;2.40;;
27408;SDS011;20413;50.782;7.152;2022-11-21T04:49:34;9.35;;;2.58;;
27408;SDS011;20413;50.782;7.152;2022-11-21T04:52:00;10.10;;;2.97;;
27408;SDS011;20413;50.782;7.152;2022-11-21T04:54:26;11.07;;;3.08;;
27408;SDS011;20413;50.782;7.152;2022-11-21T04:56:52;14.38;;;2.55;;
27408;SDS011;20413;50.782;7.152;2022-11-21T04:59:18;7.70;;;2.30;;
27408;SDS011;20413;50.782;7.152;2022-11-21T05:01:44;9.65;;;2.85;;
27408;SDS011;20413;50.782;7.152;2022-11-21T05:04:10;8.68;;;2.50;;
27408;SDS011;20413;50.782;7.152;2022-11-21T05:06:36;10.90;;;3.00;;
27408;SDS011;20413;50.782;7.152;2022-11-21T05:09:02;8.73;;;2.60;;
27408;SDS011;20413;50.782;7.152;2022-11-21T05:11:28;6.80;;;2.58;;
27408;SDS011;20413;50.782;7.152;2022-11-21T05:14:13;7.20;;;2.40;;
27408;SDS011;20413;50.782;7.152;2022-11-21T05:16:39;8.88;;;2.90;;
27408;SDS011;20413;50.782;7.152;2022-11-21T05:19:05;7.93;;;2.90;;
27408;SDS011;20413;50.782;7.152;2022-11-21T05:21:32;10.82;;;3.08;;
27408;SDS011;20413;50.782;7.152;2022-11-21T05:23:58;8.18;;;2.80;;
27408;SDS011;20413;50.782;7.152;2022-11-21T05:26:24;6.13;;;2.72;;
27408;SDS011;20413;50.782;7.152;2022-11-21T05:28:50;8.65;;;3.40;;
27408;SDS011;20413;50.782;7.152;2022-11-21T05:31:16;8.95;;;3.38;;
27408;SDS011;20413;50.782;7.152;2022-11-21T05:33:42;9.70;;;3.60;;
27408;SDS011;20413;50.782;7.152;2022-11-21T05:36:08;8.52;;;3.22;;
27408;SDS011;20413;50.782;7.152;2022-11-21T05:38:34;14.35;;;4.00;;
27408;SDS011;20413;50.782;7.152;2022-11-21T05:41:00;10.27;;;3.85;;
27408;SDS011;20413;50.782;7.152;2022-11-21T05:43:26;10.77;;;4.35;;
27408;SDS011;20413;50.782;7.152;2022-11-21T05:46:14;7.70;;;4.05;;
27408;SDS011;20413;50.782;7.152;2022-11-21T05:48:40;17.20;;;3.88;;
27408;SDS011;20413;50.782;7.152;2022-11-21T05:51:06;8.77;;;4.28;;
27408;SDS011;20413;50.782;7.152;2022-11-21T05:53:33;9.55;;;4.78;;
27408;SDS011;20413;50.782;7.152;2022-11-21T05:56:06;8.35;;;4.00;;
27408;SDS011;20413;50.782;7.152;2022-11-21T05:58:32;9.80;;;4.47;;
27408;SDS011;20413;50.782;7.152;2022-11-21T06:00:59;10.68;;;4.45;;
27408;SDS011;20413;50.782;7.152;2022-11-21T06:03:26;15.27;;;4.75;;
27408;SDS011;20413;50.782;7.152;2022-11-21T06:06:02;9.25;;;4.22;;
27408;SDS011;20413;50.782;7.152;2022-11-21T06:08:29;13.77;;;4.72;;
27408;SDS011;20413;50.782;7.152;2022-11-21T06:10:56;11.63;;;4.43;;
27408;SDS011;20413;50.782;7.152;2022-11-21T06:13:22;9.13;;;4.07;;
27408;SDS011;20413;50.782;7.152;2022-11-21T06:15:53;10.88;;;4.55;;
27408;SDS011;20413;50.782;7.152;2022-11-21T06:18:21;8.80;;;4.25;;
27408;SDS011;20413;50.782;7.152;2022-11-21T06:20:47;10.98;;;4.40;;
27408;SDS011;20413;50.782;7.152;2022-11-21T06:23:13;14.25;;;5.35;;
27408;SDS011;20413;50.782;7.152;2022-11-21T06:25:39;13.02;;;4.80;;
27408;SDS011;20413;50.782;7.152;2022-11-21T06:28:05;13.68;;;5.15;;
27408;SDS011;20413;50.782;7.152;2022-11-21T06:30:32;8.93;;;5.10;;
27408;SDS011;20413;50.782;7.152;2022-11-21T06:32:58;15.20;;;5.32;;
27408;SDS011;20413;50.782;7.152;2022-11-21T06:35:24;12.15;;;5.28;;
27408;SDS011;20413;50.782;7.152;2022-11-21T06:37:50;15.48;;;5.28;;
27408;SDS011;20413;50.782;7.152;2022-11-21T06:40:16;10.75;;;5.10;;
27408;SDS011;20413;50.782;7.152;2022-11-21T06:42:42;12.60;;;5.68;;
27408;SDS011;20413;50.782;7.152;2022-11-21T06:45:08;10.05;;;5.10;;
27408;SDS011;20413;50.782;7.152;2022-11-21T06:47:34;10.10;;;4.65;;
27408;SDS011;20413;50.782;7.152;2022-11-21T06:50:00;10.60;;;4.50;;
27408;SDS011;20413;50.782;7.152;2022-11-21T06:52:27;13.82;;;5.00;;
27408;SDS011;20413;50.782;7.152;2022-11-21T06:54:53;12.40;;;5.05;;
27408;SDS011;20413;50.782;7.152;2022-11-21T06:57:19;15.23;;;5.50;;
27408;SDS011;20413;50.782;7.152;2022-11-21T06:59:45;15.02;;;5.90;;
27408;SDS011;20413;50.782;7.152;2022-11-21T07:02:13;15.93;;;5.70;;
27408;SDS011;20413;50.782;7.152;2022-11-21T07:04:40;11.73;;;5.95;;
27408;SDS011;20413;50.782;7.152;2022-11-21T07:07:06;15.18;;;6.35;;
27408;SDS011;20413;50.782;7.152;2022-11-21T07:09:32;12.63;;;5.90;;
27408;SDS011;20413;50.782;7.152;2022-11-21T07:11:59;18.17;;;7.03;;
27408;SDS011;20413;50.782;7.152;2022-11-21T07:14:45;14.63;;;6.28;;
27408;SDS011;20413;50.782;7.152;2022-11-21T07:17:12;12.45;;;5.95;;
27408;SDS011;20413;50.782;7.152;2022-11-21T07:19:38;10.45;;;5.68;;
27408;SDS011;20413;50.782;7.152;2022-11-21T07:22:04;13.23;;;6.53;;
27408;SDS011;20413;50.782;7.152;2022-11-21T07:24:30;13.20;;;5.78;;
27408;SDS011;20413;50.782;7.152;2022-11-21T07:26:56;10.23;;;5.07;;
27408;SDS011;20413;50.782;7.152;2022-11-21T07:29:22;13.50;;;5.68;;
27408;SDS011;20413;50.782;7.152;2022-11-21T07:31:48;16.85;;;6.40;;
27408;SDS011;20413;50.782;7.152;2022-11-21T07:34:14;12.88;;;5.35;;
27408;SDS011;20413;50.782;7.152;2022-11-21T07:36:40;12.60;;;5.45;;
27408;SDS011;20413;50.782;7.152;2022-11-21T07:39:06;13.15;;;5.65;;
27408;SDS011;20413;50.782;7.152;2022-11-21T07:41:32;14.13;;;5.50;;
27408;SDS011;20413;50.782;7.152;2022-11-21T07:43:58;10.15;;;6.30;;
27408;SDS011;20413;50.782;7.152;2022-11-21T07:46:24;8.82;;;5.45;;
27408;SDS011;20413;50.782;7.152;2022-11-21T07:48:50;10.05;;;5.15;;
27408;SDS011;20413;50.782;7.152;2022-11-21T07:51:16;10.02;;;5.25;;
27408;SDS011;20413;50.782;7.152;2022-11-21T07:53:42;10.18;;;5.07;;
27408;SDS011;20413;50.782;7.152;2022-11-21T07:56:08;14.63;;;5.57;;
27408;SDS011;20413;50.782;7.152;2022-11-21T07:58:34;9.43;;;5.57;;
27408;SDS011;20413;50.782;7.152;2022-11-21T08:01:04;10.77;;;5.15;;
27408;SDS011;20413;50.782;7.152;2022-11-21T08:03:30;12.02;;;5.50;;
27408;SDS011;20413;50.782;7.152;2022-11-21T08:05:56;7.82;;;4.20;;
27408;SDS011;20413;50.782;7.152;2022-11-21T08:08:25;12.18;;;4.60;;
27408;SDS011;20413;50.782;7.152;2022-11-21T08:10:51;11.68;;;4.70;;
27408;SDS011;20413;50.782;7.152;2022-11-21T08:13:17;9.40;;;4.72;;
27408;SDS011;20413;50.782;7.152;2022-11-21T08:15:43;9.45;;;4.32;;
27408;SDS011;20413;50.782;7.152;2022-11-21T08:18:12;7.47;;;4.10;;
27408;SDS011;20413;50.782;7.152;2022-11-21T08:20:39;6.68;;;4.22;;
27408;SDS011;20413;50.782;7.152;2022-11-21T08:23:05;6.32;;;4.28;;
27408;SDS011;20413;50.782;7.152;2022-11-21T08:25:32;10.30;;;4.90;;
27408;SDS011;20413;50.782;7.152;2022-11-21T08:27:59;5.30;;;4.53;;
27408;SDS011;20413;50.782;7.152;2022-11-21T08:30:26;6.05;;;4.32;;
27408;SDS011;20413;50.782;7.152;2022-11-21T08:32:52;6.32;;;4.05;;
27408;SDS011;20413;50.782;7.152;2022-11-21T08:35:18;11.75;;;4.53;;
27408;SDS011;20413;50.782;7.152;2022-11-21T08:37:44;7.30;;;4.05;;
27408;SDS011;20413;50.782;7.152;2022-11-21T08:40:10;11.00;;;4.47;;
27408;SDS011;20413;50.782;7.152;2022-11-21T08:42:36;9.60;;;4.75;;
27408;SDS011;20413;50.782;7.152;2022-11-21T08:45:03;6.63;;;4.80;;
27408;SDS011;20413;50.782;7.152;2022-11-21T08:47:31;8.23;;;5.03;;
27408;SDS011;20413;50.782;7.152;2022-11-21T08:49:57;10.45;;;5.25;;
27408;SDS011;20413;50.782;7.152;2022-11-21T08:52:23;6.03;;;5.07;;
27408;SDS011;20413;50.782;7.152;2022-11-21T08:54:49;8.80;;;5.45;;
27408;SDS011;20413;50.782;7.152;2022-11-21T08:57:15;9.80;;;4.97;;
27408;SDS011;20413;50.782;7.152;2022-11-21T08:59:41;8.82;;;5.30;;
27408;SDS011;20413;50.782;7.152;2022-11-21T09:02:09;9.77;;;5.55;;
27408;SDS011;20413;50.782;7.152;2022-11-21T09:04:35;9.77;;;5.15;;
27408;SDS011;20413;50.782;7.152;2022-11-21T09:07:01;7.18;;;5.03;;
27408;SDS011;20413;50.782;7.152;2022-11-21T09:09:28;6.88;;;4.57;;
27408;SDS011;20413;50.782;7.152;2022-11-21T09:11:54;7.18;;;4.70;;
27408;SDS011;20413;50.782;7.152;2022-11-21T09:14:20;7.45;;;3.92;;
27408;SDS011;20413;50.782;7.152;2022-11-21T09:17:05;6.90;;;3.78;;
27408;SDS011;20413;50.782;7.152;2022-11-21T09:19:50;3.53;;;3.22;;
27408;SDS011;20413;50.782;7.152;2022-11-21T09:22:16;4.88;;;3.00;;
27408;SDS011;20413;50.782;7.152;2022-11-21T09:24:42;7.78;;;2.78;;
27408;SDS011;20413;50.782;7.152;2022-11-21T09:27:08;4.13;;;2.65;;
27408;SDS011;20413;50.782;7.152;2022-11-21T09:29:34;3.95;;;2.63;;
27408;SDS011;20413;50.782;7.152;2022-11-21T09:32:00;3.22;;;1.85;;
27408;SDS011;20413;50.782;7.152;2022-11-21T09:34:26;4.60;;;2.08;;
27408;SDS011;20413;50.782;7.152;2022-11-21T09:36:52;2.90;;;2.33;;
27408;SDS011;20413;50.782;7.152;2022-11-21T09:39:19;5.78;;;2.08;;
27408;SDS011;20413;50.782;7.152;2022-11-21T09:42:00;4.28;;;2.15;;
27408;SDS011;20413;50.782;7.152;2022-11-21T09:47:18;5.68;;;2.22;;
27408;SDS011;20413;50.782;7.152;2022-11-21T09:49:45;2.58;;;1.70;;
27408;SDS011;20413;50.782;7.152;2022-11-21T09:54:40;2.63;;;1.52;;
27408;SDS011;20413;50.782;7.152;2022-11-21T09:57:11;1.85;;;1.50;;
27408;SDS011;20413;50.782;7.152;2022-11-21T09:59:40;2.83;;;1.70;;
27408;SDS011;20413;50.782;7.152;2022-11-21T10:02:24;3.72;;;1.55;;
27408;SDS011;20413;50.782;7.152;2022-11-21T10:04:50;2.80;;;1.38;;
27408;SDS011;20413;50.782;7.152;2022-11-21T10:17:36;2.45;;;1.02;;
27408;SDS011;20413;50.782;7.152;2022-11-21T10:20:25;0.57;;;0.57;;
27408;SDS011;20413;50.782;7.152;2022-11-21T10:25:23;1.13;;;0.60;;
27408;SDS011;20413;50.782;7.152;2022-11-21T10:27:54;0.80;;;0.45;;
27408;SDS011;20413;50.782;7.152;2022-11-21T10:30:22;1.08;;;0.60;;
27408;SDS011;20413;50.782;7.152;2022-11-21T10:32:55;0.50;;;0.50;;
27408;SDS011;20413;50.782;7.152;2022-11-21T10:35:25;1.38;;;0.80;;
27408;SDS011;20413;50.782;7.152;2022-11-21T10:37:57;0.52;;;0.43;;
27408;SDS011;20413;50.782;7.152;2022-11-21T10:43:01;2.20;;;0.73;;
27408;SDS011;20413;50.782;7.152;2022-11-21T10:45:48;1.48;;;0.90;;
27408;SDS011;20413;50.782;7.152;2022-11-21T10:48:14;5.15;;;1.35;;
27408;SDS011;20413;50.782;7.152;2022-11-21T10:50:44;2.35;;;1.10;;
27408;SDS011;20413;50.782;7.152;2022-11-21T10:53:17;1.58;;;0.75;;
27408;SDS011;20413;50.782;7.152;2022-11-21T10:56:04;1.60;;;0.82;;
27408;SDS011;20413;50.782;7.152;2022-11-21T10:58:44;1.73;;;0.45;;
27408;SDS011;20413;50.782;7.152;2022-11-21T11:01:29;2.38;;;0.60;;
27408;SDS011;20413;50.782;7.152;2022-11-21T11:06:38;2.72;;;0.80;;
27408;SDS011;20413;50.782;7.152;2022-11-21T11:09:05;2.70;;;0.80;;
27408;SDS011;20413;50.782;7.152;2022-11-21T11:11:31;1.20;;;1.10;;
27408;SDS011;20413;50.782;7.152;2022-11-21T11:14:01;2.70;;;0.63;;
27408;SDS011;20413;50.782;7.152;2022-11-21T11:16:28;2.80;;;0.80;;
27408;SDS011;20413;50.782;7.152;2022-11-21T11:18:59;1.70;;;0.70;;
27408;SDS011;20413;50.782;7.152;2022-11-21T11:23:52;1.35;;;0.55;;
27408;SDS011;20413;50.782;7.152;2022-11-21T11:26:23;2.55;;;0.80;;
27408;SDS011;20413;50.782;7.152;2022-11-21T11:28:49;2.35;;;0.93;;
27408;SDS011;20413;50.782;7.152;2022-11-21T11:31:15;1.20;;;0.60;;
27408;SDS011;20413;50.782;7.152;2022-11-21T11:36:14;5.40;;;0.77;;
27408;SDS011;20413;50.782;7.152;2022-11-21T11:38:44;1.92;;;0.73;;
27408;SDS011;20413;50.782;7.152;2022-11-21T11:41:18;1.63;;;0.60;;
27408;SDS011;20413;50.782;7.152;2022-11-21T11:46:43;1.60;;;0.82;;
27408;SDS011;20413;50.782;7.152;2022-11-21T11:52:16;1.15;;;0.52;;
27408;SDS011;20413;50.782;7.152;2022-11-21T11:54:46;2.20;;;0.63;;
27408;SDS011;20413;50.782;7.152;2022-11-21T11:57:14;4.10;;;0.80;;
27408;SDS011;20413;50.782;7.152;2022-11-21T12:00:26;0.88;;;0.57;;
27408;SDS011;20413;50.782;7.152;2022-11-21T12:02:44;1.80;;;0.57;;
27408;SDS011;20413;50.782;7.152;2022-11-21T12:05:16;1.15;;;1.00;;
27408;SDS011;20413;50.782;7.152;2022-11-21T12:07:46;3.03;;;0.60;;
27408;SDS011;20413;50.782;7.152;2022-11-21T12:10:27;1.55;;;0.55;;
27408;SDS011;20413;50.782;7.152;2022-11-21T12:13:04;2.83;;;0.70;;
27408;SDS011;20413;50.782;7.152;2022-11-21T12:15:46;1.92;;;0.60;;
27408;SDS011;20413;50.782;7.152;2022-11-21T12:23:20;2.05;;;1.05;;
27408;SDS011;20413;50.782;7.152;2022-11-21T12:29:00;2.03;;;0.50;;
27408;SDS011;20413;50.782;7.152;2022-11-21T12:33:32;4.13;;;0.80;;
27408;SDS011;20413;50.782;7.152;2022-11-21T12:36:09;2.20;;;0.60;;
27408;SDS011;20413;50.782;7.152;2022-11-21T12:38:50;1.75;;;0.70;;
27408;SDS011;20413;50.782;7.152;2022-11-21T12:41:31;2.25;;;0.80;;
27408;SDS011;20413;50.782;7.152;2022-11-21T12:44:37;3.00;;;1.20;;
27408;SDS011;20413;50.782;7.152;2022-11-21T12:49:54;6.30;;;1.60;;
27408;SDS011;20413;50.782;7.152;2022-11-21T12:52:49;5.25;;;1.70;;
27408;SDS011;20413;50.782;7.152;2022-11-21T12:55:38;4.10;;;1.92;;
27408;SDS011;20413;50.782;7.152;2022-11-21T13:04:08;5.35;;;0.80;;
27408;SDS011;20413;50.782;7.152;2022-11-21T13:06:37;3.65;;;0.80;;
27408;SDS011;20413;50.782;7.152;2022-11-21T13:09:06;3.38;;;0.55;;
27408;SDS011;20413;50.782;7.152;2022-11-21T13:14:30;3.58;;;0.93;;
27408;SDS011;20413;50.782;7.152;2022-11-21T13:19:50;2.53;;;0.43;;
27408;SDS011;20413;50.782;7.152;2022-11-21T13:25:11;3.53;;;0.73;;
27408;SDS011;20413;50.782;7.152;2022-11-21T13:27:41;4.20;;;1.00;;
27408;SDS011;20413;50.782;7.152;2022-11-21T13:32:36;1.30;;;0.68;;
27408;SDS011;20413;50.782;7.152;2022-11-21T13:35:10;1.63;;;0.50;;
27408;SDS011;20413;50.782;7.152;2022-11-21T13:48:21;2.15;;;0.55;;
27408;SDS011;20413;50.782;7.152;2022-11-21T13:56:36;3.70;;;0.82;;
27408;SDS011;20413;50.782;7.152;2022-11-21T14:06:37;1.65;;;0.50;;
27408;SDS011;20413;50.782;7.152;2022-11-21T14:11:46;2.83;;;0.63;;
27408;SDS011;20413;50.782;7.152;2022-11-21T14:14:30;3.30;;;0.52;;
27408;SDS011;20413;50.782;7.152;2022-11-21T14:17:01;1.38;;;0.70;;
27408;SDS011;20413;50.782;7.152;2022-11-21T14:19:29;2.22;;;0.65;;
27408;SDS011;20413;50.782;7.152;2022-11-21T14:21:56;6.13;;;0.88;;
27408;SDS011;20413;50.782;7.152;2022-11-21T14:24:22;3.63;;;0.60;;
27408;SDS011;20413;50.782;7.152;2022-11-21T14:26:50;3.53;;;0.80;;
27408;SDS011;20413;50.782;7.152;2022-11-21T14:29:24;2.60;;;0.80;;
27408;SDS011;20413;50.782;7.152;2022-11-21T14:31:51;1.83;;;0.82;;
27408;SDS011;20413;50.782;7.152;2022-11-21T14:34:24;3.67;;;1.25;;
27408;SDS011;20413;50.782;7.152;2022-11-21T14:36:50;4.68;;;0.80;;
27408;SDS011;20413;50.782;7.152;2022-11-21T14:39:17;4.65;;;0.90;;
27408;SDS011;20413;50.782;7.152;2022-11-21T14:41:44;3.35;;;0.70;;
27408;SDS011;20413;50.782;7.152;2022-11-21T14:44:13;2.90;;;1.10;;
27408;SDS011;20413;50.782;7.152;2022-11-21T14:46:40;3.77;;;0.70;;
27408;SDS011;20413;50.782;7.152;2022-11-21T14:54:21;3.60;;;0.73;;
27408;SDS011;20413;50.782;7.152;2022-11-21T14:56:48;4.35;;;1.30;;
27408;SDS011;20413;50.782;7.152;2022-11-21T14:59:21;4.45;;;1.55;;
27408;SDS011;20413;50.782;7.152;2022-11-21T15:01:54;4.05;;;1.40;;
27408;SDS011;20413;50.782;7.152;2022-11-21T15:04:25;3.67;;;1.10;;
27408;SDS011;20413;50.782;7.152;2022-11-21T15:06:51;2.75;;;1.00;;
27408;SDS011;20413;50.782;7.152;2022-11-21T15:09:17;4.95;;;1.38;;
27408;SDS011;20413;50.782;7.152;2022-11-21T15:11:51;2.38;;;1.30;;
27408;SDS011;20413;50.782;7.152;2022-11-21T15:16:46;8.07;;;2.85;;
27408;SDS011;20413;50.782;7.152;2022-11-21T15:19:21;8.57;;;1.30;;
27408;SDS011;20413;50.782;7.152;2022-11-21T15:21:47;10.18;;;1.70;;
27408;SDS011;20413;50.782;7.152;2022-11-21T15:24:17;5.05;;;1.30;;
27408;SDS011;20413;50.782;7.152;2022-11-21T15:26:51;7.53;;;1.40;;
27408;SDS011;20413;50.782;7.152;2022-11-21T15:29:18;4.60;;;1.33;;
27408;SDS011;20413;50.782;7.152;2022-11-21T15:31:45;4.90;;;1.30;;
27408;SDS011;20413;50.782;7.152;2022-11-21T15:34:11;6.78;;;1.23;;
27408;SDS011;20413;50.782;7.152;2022-11-21T15:36:37;5.00;;;1.70;;
27408;SDS011;20413;50.782;7.152;2022-11-21T15:39:10;4.85;;;1.73;;
27408;SDS011;20413;50.782;7.152;2022-11-21T15:41:37;10.95;;;2.30;;
27408;SDS011;20413;50.782;7.152;2022-11-21T15:46:30;11.32;;;2.33;;
27408;SDS011;20413;50.782;7.152;2022-11-21T15:48:57;16.73;;;3.65;;
27408;SDS011;20413;50.782;7.152;2022-11-21T15:53:52;8.98;;;2.08;;
27408;SDS011;20413;50.782;7.152;2022-11-21T15:56:18;4.30;;;1.95;;
27408;SDS011;20413;50.782;7.152;2022-11-21T15:58:46;6.93;;;2.20;;
27408;SDS011;20413;50.782;7.152;2022-11-21T16:01:13;5.82;;;2.30;;
27408;SDS011;20413;50.782;7.152;2022-11-21T16:03:40;6.50;;;2.10;;
27408;SDS011;20413;50.782;7.152;2022-11-21T16:06:06;5.78;;;1.98;;
27408;SDS011;20413;50.782;7.152;2022-11-21T16:08:33;9.07;;;2.10;;
27408;SDS011;20413;50.782;7.152;2022-11-21T16:10:59;10.07;;;2.10;;
27408;SDS011;20413;50.782;7.152;2022-11-21T16:13:25;10.32;;;2.75;;
27408;SDS011;20413;50.782;7.152;2022-11-21T16:15:51;9.85;;;3.38;;
27408;SDS011;20413;50.782;7.152;2022-11-21T16:18:17;13.68;;;4.32;;
27408;SDS011;20413;50.782;7.152;2022-11-21T16:20:43;10.18;;;3.22;;
27408;SDS011;20413;50.782;7.152;2022-11-21T16:23:09;13.35;;;2.83;;
27408;SDS011;20413;50.782;7.152;2022-11-21T16:25:36;11.98;;;3.33;;
27408;SDS011;20413;50.782;7.152;2022-11-21T16:28:02;9.63;;;4.00;;
27408;SDS011;20413;50.782;7.152;2022-11-21T16:30:28;12.23;;;4.35;;
27408;SDS011;20413;50.782;7.152;2022-11-21T16:32:54;10.93;;;3.90;;
27408;SDS011;20413;50.782;7.152;2022-11-21T16:35:21;12.18;;;5.07;;
27408;SDS011;20413;50.782;7.152;2022-11-21T16:37:47;9.10;;;4.00;;
27408;SDS011;20413;50.782;7.152;2022-11-21T16:40:13;11.27;;;4.40;;